sensor_id;sensor_type;location;lat;lon;timestamp;P1;durP1;ratioP1;P2;durP2;ratioP2
11998;SDS011;40817;51.520;9.954;2023-02-17T00:01:13;24.15;;;14.40;;
11998;SDS011;40817;51.520;9.954;2023-02-17T00:03:46;22.67;;;13.98;;
11998;SDS011;40817;51.520;9.954;2023-02-17T00:06:15;24.70;;;15.48;;
11998;SDS011;40817;51.520;9.954;2023-02-17T00:08:45;22.63;;;14.73;;
11998;SDS011;40817;51.520;9.954;2023-02-17T00:11:16;22.85;;;14.25;;
11998;SDS011;40817;51.520;9.954;2023-02-17T00:13:45;29.50;;;15.63;;
11998;SDS011;40817;51.520;9.954;2023-02-17T00:16:14;25.25;;;14.88;;
11998;SDS011;40817;51.520;9.954;2023-02-17T00:18:44;24.30;;;14.77;;
11998;SDS011;40817;51.520;9.954;2023-02-17T00:21:13;24.50;;;13.85;;
11998;SDS011;40817;51.520;9.954;2023-02-17T00:23:43;21.25;;;14.32;;
11998;SDS011;40817;51.520;9.954;2023-02-17T00:26:12;22.48;;;14.80;;
11998;SDS011;40817;51.520;9.954;2023-02-17T00:28:43;23.85;;;15.57;;
11998;SDS011;40817;51.520;9.954;2023-02-17T00:31:14;24.65;;;14.60;;
11998;SDS011;40817;51.520;9.954;2023-02-17T00:33:45;24.52;;;14.90;;
11998;SDS011;40817;51.520;9.954;2023-02-17T00:36:14;26.67;;;15.45;;
11998;SDS011;40817;51.520;9.954;2023-02-17T00:38:44;25.67;;;15.70;;
11998;SDS011;40817;51.520;9.954;2023-02-17T00:41:14;24.73;;;15.15;;
11998;SDS011;40817;51.520;9.954;2023-02-17T00:43:44;20.27;;;14.15;;
11998;SDS011;40817;51.520;9.954;2023-02-17T00:46:13;23.67;;;15.40;;
11998;SDS011;40817;51.520;9.954;2023-02-17T00:48:43;23.40;;;14.88;;
11998;SDS011;40817;51.520;9.954;2023-02-17T00:51:12;25.20;;;15.93;;
11998;SDS011;40817;51.520;9.954;2023-02-17T00:53:40;23.25;;;15.43;;
11998;SDS011;40817;51.520;9.954;2023-02-17T00:56:08;26.63;;;16.67;;
11998;SDS011;40817;51.520;9.954;2023-02-17T00:58:38;26.38;;;16.90;;
11998;SDS011;40817;51.520;9.954;2023-02-17T01:01:07;26.15;;;15.70;;
11998;SDS011;40817;51.520;9.954;2023-02-17T01:03:35;24.23;;;16.02;;
11998;SDS011;40817;51.520;9.954;2023-02-17T01:06:04;26.80;;;16.13;;
11998;SDS011;40817;51.520;9.954;2023-02-17T01:08:35;30.25;;;17.02;;
11998;SDS011;40817;51.520;9.954;2023-02-17T01:11:03;24.65;;;16.00;;
11998;SDS011;40817;51.520;9.954;2023-02-17T01:13:31;25.00;;;15.93;;
11998;SDS011;40817;51.520;9.954;2023-02-17T01:16:00;27.33;;;16.35;;
11998;SDS011;40817;51.520;9.954;2023-02-17T01:18:27;27.25;;;17.05;;
11998;SDS011;40817;51.520;9.954;2023-02-17T01:20:55;24.88;;;15.63;;
11998;SDS011;40817;51.520;9.954;2023-02-17T01:23:23;27.77;;;15.75;;
11998;SDS011;40817;51.520;9.954;2023-02-17T01:25:50;24.20;;;15.68;;
11998;SDS011;40817;51.520;9.954;2023-02-17T01:28:19;27.55;;;16.65;;
11998;SDS011;40817;51.520;9.954;2023-02-17T01:30:47;25.23;;;17.02;;
11998;SDS011;40817;51.520;9.954;2023-02-17T01:33:16;25.25;;;16.73;;
11998;SDS011;40817;51.520;9.954;2023-02-17T01:35:44;26.55;;;15.75;;
11998;SDS011;40817;51.520;9.954;2023-02-17T01:38:12;27.45;;;15.68;;
11998;SDS011;40817;51.520;9.954;2023-02-17T01:40:44;27.25;;;15.55;;
11998;SDS011;40817;51.520;9.954;2023-02-17T01:43:14;28.25;;;15.25;;
11998;SDS011;40817;51.520;9.954;2023-02-17T01:45:45;25.95;;;15.82;;
11998;SDS011;40817;51.520;9.954;2023-02-17T01:48:17;23.75;;;14.85;;
11998;SDS011;40817;51.520;9.954;2023-02-17T01:50:49;21.33;;;14.43;;
11998;SDS011;40817;51.520;9.954;2023-02-17T01:53:21;25.00;;;15.48;;
11998;SDS011;40817;51.520;9.954;2023-02-17T01:55:56;24.45;;;14.80;;
11998;SDS011;40817;51.520;9.954;2023-02-17T01:58:24;22.23;;;14.60;;
11998;SDS011;40817;51.520;9.954;2023-02-17T02:00:54;21.63;;;14.27;;
11998;SDS011;40817;51.520;9.954;2023-02-17T02:03:30;22.92;;;14.55;;
11998;SDS011;40817;51.520;9.954;2023-02-17T02:06:00;23.58;;;14.63;;
11998;SDS011;40817;51.520;9.954;2023-02-17T02:08:33;26.15;;;15.27;;
11998;SDS011;40817;51.520;9.954;2023-02-17T02:11:12;21.13;;;14.85;;
11998;SDS011;40817;51.520;9.954;2023-02-17T02:13:40;23.45;;;15.07;;
11998;SDS011;40817;51.520;9.954;2023-02-17T02:16:09;20.70;;;13.95;;
11998;SDS011;40817;51.520;9.954;2023-02-17T02:18:50;23.27;;;15.27;;
11998;SDS011;40817;51.520;9.954;2023-02-17T02:25:07;20.25;;;13.55;;
11998;SDS011;40817;51.520;9.954;2023-02-17T02:27:58;23.10;;;15.10;;
11998;SDS011;40817;51.520;9.954;2023-02-17T02:30:51;23.90;;;15.38;;
11998;SDS011;40817;51.520;9.954;2023-02-17T02:33:38;21.15;;;14.18;;
11998;SDS011;40817;51.520;9.954;2023-02-17T02:36:12;20.52;;;13.32;;
11998;SDS011;40817;51.520;9.954;2023-02-17T02:38:52;23.52;;;14.55;;
11998;SDS011;40817;51.520;9.954;2023-02-17T02:41:27;23.20;;;13.75;;
11998;SDS011;40817;51.520;9.954;2023-02-17T02:44:02;19.80;;;13.98;;
11998;SDS011;40817;51.520;9.954;2023-02-17T02:46:34;20.65;;;13.52;;
11998;SDS011;40817;51.520;9.954;2023-02-17T02:49:06;23.42;;;15.07;;
11998;SDS011;40817;51.520;9.954;2023-02-17T02:51:42;21.48;;;14.23;;
11998;SDS011;40817;51.520;9.954;2023-02-17T02:54:32;20.42;;;13.32;;
11998;SDS011;40817;51.520;9.954;2023-02-17T02:57:20;19.67;;;13.98;;
11998;SDS011;40817;51.520;9.954;2023-02-17T03:00:13;20.33;;;13.77;;
11998;SDS011;40817;51.520;9.954;2023-02-17T03:02:48;22.05;;;13.95;;
11998;SDS011;40817;51.520;9.954;2023-02-17T03:05:27;21.40;;;13.35;;
11998;SDS011;40817;51.520;9.954;2023-02-17T03:08:07;20.23;;;13.32;;
11998;SDS011;40817;51.520;9.954;2023-02-17T03:10:43;19.40;;;13.25;;
11998;SDS011;40817;51.520;9.954;2023-02-17T03:13:13;20.80;;;13.07;;
11998;SDS011;40817;51.520;9.954;2023-02-17T03:15:41;22.05;;;13.77;;
11998;SDS011;40817;51.520;9.954;2023-02-17T03:18:10;17.73;;;12.95;;
11998;SDS011;40817;51.520;9.954;2023-02-17T03:20:41;16.15;;;12.13;;
11998;SDS011;40817;51.520;9.954;2023-02-17T03:23:14;18.67;;;13.02;;
11998;SDS011;40817;51.520;9.954;2023-02-17T03:25:42;17.55;;;12.32;;
11998;SDS011;40817;51.520;9.954;2023-02-17T03:28:09;16.40;;;12.10;;
11998;SDS011;40817;51.520;9.954;2023-02-17T03:30:37;17.88;;;12.05;;
11998;SDS011;40817;51.520;9.954;2023-02-17T03:33:05;15.48;;;11.55;;
11998;SDS011;40817;51.520;9.954;2023-02-17T03:35:34;18.02;;;12.25;;
11998;SDS011;40817;51.520;9.954;2023-02-17T03:38:03;18.58;;;12.73;;
11998;SDS011;40817;51.520;9.954;2023-02-17T03:40:30;19.40;;;12.65;;
11998;SDS011;40817;51.520;9.954;2023-02-17T03:42:58;17.33;;;12.60;;
11998;SDS011;40817;51.520;9.954;2023-02-17T03:45:25;20.83;;;13.35;;
11998;SDS011;40817;51.520;9.954;2023-02-17T03:47:53;17.05;;;11.82;;
11998;SDS011;40817;51.520;9.954;2023-02-17T03:50:21;18.40;;;12.77;;
11998;SDS011;40817;51.520;9.954;2023-02-17T03:52:48;20.45;;;13.38;;
11998;SDS011;40817;51.520;9.954;2023-02-17T03:55:17;19.02;;;13.23;;
11998;SDS011;40817;51.520;9.954;2023-02-17T03:57:44;19.10;;;12.77;;
11998;SDS011;40817;51.520;9.954;2023-02-17T04:00:12;19.67;;;12.93;;
11998;SDS011;40817;51.520;9.954;2023-02-17T04:02:42;17.70;;;12.25;;
11998;SDS011;40817;51.520;9.954;2023-02-17T04:05:29;18.10;;;12.65;;
11998;SDS011;40817;51.520;9.954;2023-02-17T04:07:57;17.70;;;12.70;;
11998;SDS011;40817;51.520;9.954;2023-02-17T04:10:26;21.45;;;13.98;;
11998;SDS011;40817;51.520;9.954;2023-02-17T04:12:53;18.70;;;12.52;;
11998;SDS011;40817;51.520;9.954;2023-02-17T04:15:21;19.25;;;13.70;;
11998;SDS011;40817;51.520;9.954;2023-02-17T04:17:48;17.17;;;12.30;;
11998;SDS011;40817;51.520;9.954;2023-02-17T04:20:16;17.17;;;12.35;;
11998;SDS011;40817;51.520;9.954;2023-02-17T04:22:44;17.70;;;12.70;;
11998;SDS011;40817;51.520;9.954;2023-02-17T04:25:11;17.83;;;13.10;;
11998;SDS011;40817;51.520;9.954;2023-02-17T04:27:40;17.33;;;12.20;;
11998;SDS011;40817;51.520;9.954;2023-02-17T04:30:08;20.38;;;13.45;;
11998;SDS011;40817;51.520;9.954;2023-02-17T04:32:37;17.55;;;12.05;;
11998;SDS011;40817;51.520;9.954;2023-02-17T04:35:05;21.40;;;12.93;;
11998;SDS011;40817;51.520;9.954;2023-02-17T04:37:33;18.05;;;12.27;;
11998;SDS011;40817;51.520;9.954;2023-02-17T04:40:01;17.70;;;12.30;;
11998;SDS011;40817;51.520;9.954;2023-02-17T04:42:29;16.85;;;12.27;;
11998;SDS011;40817;51.520;9.954;2023-02-17T04:44:58;18.17;;;12.52;;
11998;SDS011;40817;51.520;9.954;2023-02-17T04:47:25;19.33;;;13.40;;
11998;SDS011;40817;51.520;9.954;2023-02-17T04:49:53;18.02;;;12.43;;
11998;SDS011;40817;51.520;9.954;2023-02-17T04:52:20;20.10;;;12.63;;
11998;SDS011;40817;51.520;9.954;2023-02-17T04:54:48;16.52;;;12.27;;
11998;SDS011;40817;51.520;9.954;2023-02-17T04:57:16;16.55;;;11.43;;
11998;SDS011;40817;51.520;9.954;2023-02-17T04:59:44;18.20;;;11.57;;
11998;SDS011;40817;51.520;9.954;2023-02-17T05:02:13;18.33;;;12.73;;
11998;SDS011;40817;51.520;9.954;2023-02-17T05:04:40;14.23;;;10.85;;
11998;SDS011;40817;51.520;9.954;2023-02-17T05:07:08;17.25;;;12.10;;
11998;SDS011;40817;51.520;9.954;2023-02-17T05:09:39;16.85;;;11.82;;
11998;SDS011;40817;51.520;9.954;2023-02-17T05:12:06;15.07;;;10.95;;
11998;SDS011;40817;51.520;9.954;2023-02-17T05:14:34;16.20;;;11.32;;
11998;SDS011;40817;51.520;9.954;2023-02-17T05:17:02;17.75;;;11.90;;
11998;SDS011;40817;51.520;9.954;2023-02-17T05:19:31;14.55;;;10.77;;
11998;SDS011;40817;51.520;9.954;2023-02-17T05:21:59;14.50;;;11.82;;
11998;SDS011;40817;51.520;9.954;2023-02-17T05:24:26;15.18;;;11.05;;
11998;SDS011;40817;51.520;9.954;2023-02-17T05:26:54;16.33;;;11.82;;
11998;SDS011;40817;51.520;9.954;2023-02-17T05:29:21;17.52;;;11.05;;
11998;SDS011;40817;51.520;9.954;2023-02-17T05:31:49;15.07;;;10.80;;
11998;SDS011;40817;51.520;9.954;2023-02-17T05:34:17;15.05;;;11.55;;
11998;SDS011;40817;51.520;9.954;2023-02-17T05:36:46;17.15;;;11.93;;
11998;SDS011;40817;51.520;9.954;2023-02-17T05:39:13;15.60;;;10.70;;
11998;SDS011;40817;51.520;9.954;2023-02-17T05:41:41;15.52;;;10.25;;
11998;SDS011;40817;51.520;9.954;2023-02-17T05:44:08;16.95;;;11.35;;
11998;SDS011;40817;51.520;9.954;2023-02-17T05:46:36;18.35;;;12.65;;
11998;SDS011;40817;51.520;9.954;2023-02-17T05:49:03;18.58;;;12.63;;
11998;SDS011;40817;51.520;9.954;2023-02-17T05:51:35;16.67;;;11.05;;
11998;SDS011;40817;51.520;9.954;2023-02-17T05:54:05;18.17;;;11.63;;
11998;SDS011;40817;51.520;9.954;2023-02-17T05:56:32;14.93;;;10.77;;
11998;SDS011;40817;51.520;9.954;2023-02-17T05:59:00;16.52;;;11.38;;
11998;SDS011;40817;51.520;9.954;2023-02-17T06:01:27;18.45;;;12.98;;
11998;SDS011;40817;51.520;9.954;2023-02-17T06:03:54;15.95;;;11.80;;
11998;SDS011;40817;51.520;9.954;2023-02-17T06:06:22;16.92;;;11.80;;
11998;SDS011;40817;51.520;9.954;2023-02-17T06:08:50;19.48;;;12.80;;
11998;SDS011;40817;51.520;9.954;2023-02-17T06:11:19;16.35;;;11.27;;
11998;SDS011;40817;51.520;9.954;2023-02-17T06:13:46;19.10;;;11.90;;
11998;SDS011;40817;51.520;9.954;2023-02-17T06:16:14;19.67;;;12.60;;
11998;SDS011;40817;51.520;9.954;2023-02-17T06:18:41;18.30;;;12.77;;
11998;SDS011;40817;51.520;9.954;2023-02-17T06:21:09;15.88;;;11.25;;
11998;SDS011;40817;51.520;9.954;2023-02-17T06:23:36;16.08;;;11.05;;
11998;SDS011;40817;51.520;9.954;2023-02-17T06:26:04;16.63;;;11.95;;
11998;SDS011;40817;51.520;9.954;2023-02-17T06:28:32;15.18;;;11.20;;
11998;SDS011;40817;51.520;9.954;2023-02-17T06:31:00;15.35;;;11.07;;
11998;SDS011;40817;51.520;9.954;2023-02-17T06:33:28;16.85;;;11.68;;
11998;SDS011;40817;51.520;9.954;2023-02-17T06:35:55;12.98;;;9.55;;
11998;SDS011;40817;51.520;9.954;2023-02-17T06:38:23;14.32;;;10.25;;
11998;SDS011;40817;51.520;9.954;2023-02-17T06:40:51;13.27;;;10.32;;
11998;SDS011;40817;51.520;9.954;2023-02-17T06:43:19;15.32;;;9.82;;
11998;SDS011;40817;51.520;9.954;2023-02-17T06:45:48;16.75;;;11.13;;
11998;SDS011;40817;51.520;9.954;2023-02-17T06:48:16;14.43;;;10.45;;
11998;SDS011;40817;51.520;9.954;2023-02-17T06:50:43;17.02;;;10.02;;
11998;SDS011;40817;51.520;9.954;2023-02-17T06:53:11;14.60;;;10.77;;
11998;SDS011;40817;51.520;9.954;2023-02-17T06:55:38;12.95;;;9.45;;
11998;SDS011;40817;51.520;9.954;2023-02-17T06:58:06;13.63;;;9.52;;
11998;SDS011;40817;51.520;9.954;2023-02-17T07:00:33;13.40;;;9.23;;
11998;SDS011;40817;51.520;9.954;2023-02-17T07:03:02;13.07;;;8.77;;
11998;SDS011;40817;51.520;9.954;2023-02-17T07:05:30;12.55;;;8.95;;
11998;SDS011;40817;51.520;9.954;2023-02-17T07:08:01;16.35;;;10.05;;
11998;SDS011;40817;51.520;9.954;2023-02-17T07:10:28;13.02;;;8.93;;
11998;SDS011;40817;51.520;9.954;2023-02-17T07:12:56;11.55;;;7.93;;
11998;SDS011;40817;51.520;9.954;2023-02-17T07:15:24;11.60;;;7.40;;
11998;SDS011;40817;51.520;9.954;2023-02-17T07:17:52;9.85;;;6.30;;
11998;SDS011;40817;51.520;9.954;2023-02-17T07:20:20;10.80;;;6.82;;
11998;SDS011;40817;51.520;9.954;2023-02-17T07:22:48;11.98;;;8.20;;
11998;SDS011;40817;51.520;9.954;2023-02-17T07:25:16;12.18;;;8.30;;
11998;SDS011;40817;51.520;9.954;2023-02-17T07:27:44;13.57;;;8.05;;
11998;SDS011;40817;51.520;9.954;2023-02-17T07:30:12;11.68;;;7.20;;
11998;SDS011;40817;51.520;9.954;2023-02-17T07:32:40;12.00;;;8.13;;
11998;SDS011;40817;51.520;9.954;2023-02-17T07:35:08;10.32;;;7.72;;
11998;SDS011;40817;51.520;9.954;2023-02-17T07:37:37;10.85;;;8.35;;
11998;SDS011;40817;51.520;9.954;2023-02-17T07:40:05;10.32;;;7.60;;
11998;SDS011;40817;51.520;9.954;2023-02-17T07:42:34;11.38;;;8.27;;
11998;SDS011;40817;51.520;9.954;2023-02-17T07:45:02;11.48;;;8.27;;
11998;SDS011;40817;51.520;9.954;2023-02-17T07:47:31;10.32;;;6.95;;
11998;SDS011;40817;51.520;9.954;2023-02-17T07:49:59;12.20;;;8.00;;
11998;SDS011;40817;51.520;9.954;2023-02-17T07:52:26;9.80;;;7.57;;
11998;SDS011;40817;51.520;9.954;2023-02-17T07:54:55;10.57;;;7.75;;
11998;SDS011;40817;51.520;9.954;2023-02-17T07:57:23;10.98;;;7.68;;
11998;SDS011;40817;51.520;9.954;2023-02-17T07:59:50;13.55;;;8.05;;
11998;SDS011;40817;51.520;9.954;2023-02-17T08:02:18;10.57;;;7.15;;
11998;SDS011;40817;51.520;9.954;2023-02-17T08:04:46;12.85;;;7.60;;
11998;SDS011;40817;51.520;9.954;2023-02-17T08:07:13;10.35;;;7.68;;
11998;SDS011;40817;51.520;9.954;2023-02-17T08:09:41;11.00;;;7.50;;
11998;SDS011;40817;51.520;9.954;2023-02-17T08:12:27;9.60;;;6.50;;
11998;SDS011;40817;51.520;9.954;2023-02-17T08:15:13;11.45;;;6.53;;
11998;SDS011;40817;51.520;9.954;2023-02-17T08:17:41;11.10;;;6.47;;
11998;SDS011;40817;51.520;9.954;2023-02-17T08:20:09;10.93;;;6.60;;
11998;SDS011;40817;51.520;9.954;2023-02-17T08:22:40;8.52;;;6.05;;
11998;SDS011;40817;51.520;9.954;2023-02-17T08:25:07;8.20;;;5.97;;
11998;SDS011;40817;51.520;9.954;2023-02-17T08:27:36;8.93;;;5.60;;
11998;SDS011;40817;51.520;9.954;2023-02-17T08:30:04;9.68;;;6.78;;
11998;SDS011;40817;51.520;9.954;2023-02-17T08:32:34;9.20;;;6.45;;
11998;SDS011;40817;51.520;9.954;2023-02-17T08:35:01;11.07;;;6.18;;
11998;SDS011;40817;51.520;9.954;2023-02-17T08:37:35;9.13;;;6.22;;
11998;SDS011;40817;51.520;9.954;2023-02-17T08:40:03;8.07;;;5.93;;
11998;SDS011;40817;51.520;9.954;2023-02-17T08:42:32;8.73;;;6.20;;
11998;SDS011;40817;51.520;9.954;2023-02-17T08:45:02;8.40;;;5.95;;
11998;SDS011;40817;51.520;9.954;2023-02-17T08:47:30;9.60;;;6.15;;
11998;SDS011;40817;51.520;9.954;2023-02-17T08:49:58;11.48;;;5.45;;
11998;SDS011;40817;51.520;9.954;2023-02-17T08:52:26;8.95;;;5.50;;
11998;SDS011;40817;51.520;9.954;2023-02-17T08:54:53;7.20;;;5.03;;
11998;SDS011;40817;51.520;9.954;2023-02-17T08:57:21;7.63;;;5.53;;
11998;SDS011;40817;51.520;9.954;2023-02-17T08:59:48;9.20;;;5.50;;
11998;SDS011;40817;51.520;9.954;2023-02-17T09:02:18;8.65;;;6.05;;
11998;SDS011;40817;51.520;9.954;2023-02-17T09:04:45;10.27;;;5.50;;
11998;SDS011;40817;51.520;9.954;2023-02-17T09:07:13;7.95;;;4.95;;
11998;SDS011;40817;51.520;9.954;2023-02-17T09:09:41;7.07;;;5.43;;
11998;SDS011;40817;51.520;9.954;2023-02-17T09:12:09;8.88;;;6.28;;
11998;SDS011;40817;51.520;9.954;2023-02-17T09:14:38;8.05;;;4.95;;
11998;SDS011;40817;51.520;9.954;2023-02-17T09:17:05;7.47;;;5.03;;
11998;SDS011;40817;51.520;9.954;2023-02-17T09:19:36;8.23;;;5.93;;
11998;SDS011;40817;51.520;9.954;2023-02-17T09:22:05;7.85;;;5.50;;
11998;SDS011;40817;51.520;9.954;2023-02-17T09:24:33;7.18;;;5.07;;
11998;SDS011;40817;51.520;9.954;2023-02-17T09:27:02;8.32;;;5.82;;
11998;SDS011;40817;51.520;9.954;2023-02-17T09:29:30;7.05;;;4.97;;
11998;SDS011;40817;51.520;9.954;2023-02-17T09:31:57;6.40;;;4.50;;
11998;SDS011;40817;51.520;9.954;2023-02-17T09:34:25;6.82;;;5.38;;
11998;SDS011;40817;51.520;9.954;2023-02-17T09:36:54;7.20;;;5.18;;
11998;SDS011;40817;51.520;9.954;2023-02-17T09:39:22;6.75;;;4.97;;
11998;SDS011;40817;51.520;9.954;2023-02-17T09:41:51;9.13;;;4.40;;
11998;SDS011;40817;51.520;9.954;2023-02-17T09:44:20;5.55;;;4.30;;
11998;SDS011;40817;51.520;9.954;2023-02-17T09:46:53;6.85;;;4.55;;
11998;SDS011;40817;51.520;9.954;2023-02-17T09:49:30;6.50;;;4.50;;
11998;SDS011;40817;51.520;9.954;2023-02-17T09:52:07;5.57;;;4.28;;
11998;SDS011;40817;51.520;9.954;2023-02-17T09:57:19;5.60;;;3.67;;
11998;SDS011;40817;51.520;9.954;2023-02-17T09:59:53;6.28;;;3.70;;
11998;SDS011;40817;51.520;9.954;2023-02-17T10:02:30;6.47;;;3.75;;
11998;SDS011;40817;51.520;9.954;2023-02-17T10:05:07;6.32;;;3.95;;
11998;SDS011;40817;51.520;9.954;2023-02-17T10:07:42;5.63;;;4.10;;
11998;SDS011;40817;51.520;9.954;2023-02-17T10:10:17;6.13;;;4.25;;
11998;SDS011;40817;51.520;9.954;2023-02-17T10:12:51;6.03;;;4.13;;
11998;SDS011;40817;51.520;9.954;2023-02-17T10:15:23;5.15;;;3.85;;
11998;SDS011;40817;51.520;9.954;2023-02-17T10:17:59;5.55;;;3.75;;
11998;SDS011;40817;51.520;9.954;2023-02-17T10:20:37;4.47;;;3.33;;
11998;SDS011;40817;51.520;9.954;2023-02-17T10:23:14;4.88;;;3.38;;
11998;SDS011;40817;51.520;9.954;2023-02-17T10:25:50;5.97;;;3.90;;
11998;SDS011;40817;51.520;9.954;2023-02-17T10:28:46;6.35;;;3.60;;
11998;SDS011;40817;51.520;9.954;2023-02-17T10:31:20;6.68;;;3.88;;
11998;SDS011;40817;51.520;9.954;2023-02-17T10:34:10;5.07;;;3.60;;
11998;SDS011;40817;51.520;9.954;2023-02-17T10:36:52;4.15;;;3.22;;
11998;SDS011;40817;51.520;9.954;2023-02-17T10:39:31;6.47;;;2.97;;
11998;SDS011;40817;51.520;9.954;2023-02-17T10:42:14;6.18;;;3.97;;
11998;SDS011;40817;51.520;9.954;2023-02-17T10:44:47;4.50;;;3.00;;
11998;SDS011;40817;51.520;9.954;2023-02-17T10:47:17;4.93;;;3.28;;
11998;SDS011;40817;51.520;9.954;2023-02-17T10:49:48;4.78;;;3.15;;
11998;SDS011;40817;51.520;9.954;2023-02-17T10:52:21;5.70;;;3.30;;
11998;SDS011;40817;51.520;9.954;2023-02-17T10:54:55;4.13;;;2.67;;
11998;SDS011;40817;51.520;9.954;2023-02-17T10:57:32;6.13;;;3.15;;
11998;SDS011;40817;51.520;9.954;2023-02-17T11:00:04;3.97;;;2.65;;
11998;SDS011;40817;51.520;9.954;2023-02-17T11:02:41;5.40;;;3.30;;
11998;SDS011;40817;51.520;9.954;2023-02-17T11:05:19;4.47;;;3.05;;
11998;SDS011;40817;51.520;9.954;2023-02-17T11:07:53;5.50;;;2.90;;
11998;SDS011;40817;51.520;9.954;2023-02-17T11:10:28;4.93;;;2.70;;
11998;SDS011;40817;51.520;9.954;2023-02-17T11:13:00;4.55;;;3.20;;
11998;SDS011;40817;51.520;9.954;2023-02-17T11:15:31;4.25;;;2.55;;
11998;SDS011;40817;51.520;9.954;2023-02-17T11:18:10;5.43;;;2.97;;
11998;SDS011;40817;51.520;9.954;2023-02-17T11:20:46;4.15;;;2.83;;
11998;SDS011;40817;51.520;9.954;2023-02-17T11:23:21;4.20;;;2.83;;
11998;SDS011;40817;51.520;9.954;2023-02-17T11:25:58;4.97;;;3.00;;
11998;SDS011;40817;51.520;9.954;2023-02-17T11:28:34;4.20;;;2.78;;
11998;SDS011;40817;51.520;9.954;2023-02-17T11:31:02;4.35;;;2.88;;
11998;SDS011;40817;51.520;9.954;2023-02-17T11:33:33;3.67;;;2.80;;
11998;SDS011;40817;51.520;9.954;2023-02-17T11:36:04;4.45;;;2.80;;
11998;SDS011;40817;51.520;9.954;2023-02-17T11:38:40;4.03;;;2.78;;
11998;SDS011;40817;51.520;9.954;2023-02-17T11:41:13;4.05;;;2.92;;
11998;SDS011;40817;51.520;9.954;2023-02-17T11:43:49;4.45;;;3.00;;
11998;SDS011;40817;51.520;9.954;2023-02-17T11:46:24;4.97;;;3.40;;
11998;SDS011;40817;51.520;9.954;2023-02-17T11:49:17;4.40;;;2.90;;
11998;SDS011;40817;51.520;9.954;2023-02-17T11:52:11;4.70;;;2.83;;
11998;SDS011;40817;51.520;9.954;2023-02-17T11:55:21;4.15;;;2.97;;
11998;SDS011;40817;51.520;9.954;2023-02-17T11:58:05;4.30;;;2.90;;
11998;SDS011;40817;51.520;9.954;2023-02-17T12:00:55;4.43;;;3.10;;
11998;SDS011;40817;51.520;9.954;2023-02-17T12:03:36;4.15;;;3.08;;
11998;SDS011;40817;51.520;9.954;2023-02-17T12:13:14;3.72;;;2.63;;
11998;SDS011;40817;51.520;9.954;2023-02-17T12:16:11;3.97;;;2.90;;
11998;SDS011;40817;51.520;9.954;2023-02-17T12:18:59;3.83;;;2.65;;
11998;SDS011;40817;51.520;9.954;2023-02-17T12:21:48;5.22;;;2.97;;
11998;SDS011;40817;51.520;9.954;2023-02-17T12:24:33;6.75;;;3.35;;
11998;SDS011;40817;51.520;9.954;2023-02-17T12:27:47;5.43;;;3.20;;
11998;SDS011;40817;51.520;9.954;2023-02-17T12:30:34;5.07;;;3.28;;
11998;SDS011;40817;51.520;9.954;2023-02-17T12:33:24;4.68;;;3.30;;
11998;SDS011;40817;51.520;9.954;2023-02-17T12:36:13;4.15;;;3.08;;
11998;SDS011;40817;51.520;9.954;2023-02-17T12:38:45;8.45;;;3.47;;
11998;SDS011;40817;51.520;9.954;2023-02-17T12:41:20;3.30;;;2.47;;
11998;SDS011;40817;51.520;9.954;2023-02-17T12:43:54;3.95;;;2.72;;
11998;SDS011;40817;51.520;9.954;2023-02-17T12:46:30;6.93;;;2.90;;
11998;SDS011;40817;51.520;9.954;2023-02-17T12:49:05;4.40;;;2.60;;
11998;SDS011;40817;51.520;9.954;2023-02-17T12:51:40;6.40;;;2.10;;
11998;SDS011;40817;51.520;9.954;2023-02-17T12:54:15;3.25;;;2.20;;
11998;SDS011;40817;51.520;9.954;2023-02-17T12:56:58;3.38;;;2.28;;
11998;SDS011;40817;51.520;9.954;2023-02-17T12:59:43;6.18;;;2.50;;
11998;SDS011;40817;51.520;9.954;2023-02-17T13:02:17;3.53;;;2.05;;
11998;SDS011;40817;51.520;9.954;2023-02-17T13:04:51;4.78;;;2.47;;
11998;SDS011;40817;51.520;9.954;2023-02-17T13:07:23;4.88;;;2.65;;
11998;SDS011;40817;51.520;9.954;2023-02-17T13:10:17;4.50;;;2.30;;
11998;SDS011;40817;51.520;9.954;2023-02-17T13:12:58;2.72;;;2.08;;
11998;SDS011;40817;51.520;9.954;2023-02-17T13:15:32;3.35;;;2.00;;
11998;SDS011;40817;51.520;9.954;2023-02-17T13:18:06;3.25;;;2.00;;
11998;SDS011;40817;51.520;9.954;2023-02-17T13:20:40;2.72;;;2.25;;
11998;SDS011;40817;51.520;9.954;2023-02-17T13:23:30;3.72;;;2.22;;
11998;SDS011;40817;51.520;9.954;2023-02-17T13:26:12;4.07;;;2.30;;
11998;SDS011;40817;51.520;9.954;2023-02-17T13:29:17;5.53;;;1.90;;
11998;SDS011;40817;51.520;9.954;2023-02-17T13:32:00;3.40;;;1.85;;
11998;SDS011;40817;51.520;9.954;2023-02-17T13:34:33;4.93;;;1.83;;
11998;SDS011;40817;51.520;9.954;2023-02-17T13:37:14;2.50;;;1.40;;
11998;SDS011;40817;51.520;9.954;2023-02-17T13:39:52;3.20;;;1.90;;
11998;SDS011;40817;51.520;9.954;2023-02-17T13:42:28;3.45;;;1.50;;
11998;SDS011;40817;51.520;9.954;2023-02-17T13:45:11;2.63;;;1.55;;
11998;SDS011;40817;51.520;9.954;2023-02-17T13:47:53;3.58;;;1.50;;
11998;SDS011;40817;51.520;9.954;2023-02-17T13:50:28;3.35;;;1.92;;
11998;SDS011;40817;51.520;9.954;2023-02-17T13:55:44;3.20;;;1.73;;
11998;SDS011;40817;51.520;9.954;2023-02-17T13:58:12;2.20;;;1.58;;
11998;SDS011;40817;51.520;9.954;2023-02-17T14:00:41;3.40;;;1.95;;
11998;SDS011;40817;51.520;9.954;2023-02-17T14:03:19;3.28;;;1.70;;
11998;SDS011;40817;51.520;9.954;2023-02-17T14:05:51;2.33;;;1.40;;
11998;SDS011;40817;51.520;9.954;2023-02-17T14:08:24;3.45;;;1.50;;
11998;SDS011;40817;51.520;9.954;2023-02-17T14:11:05;2.65;;;1.40;;
11998;SDS011;40817;51.520;9.954;2023-02-17T14:13:37;2.58;;;1.42;;
11998;SDS011;40817;51.520;9.954;2023-02-17T14:16:20;3.35;;;1.75;;
11998;SDS011;40817;51.520;9.954;2023-02-17T14:19:03;1.60;;;1.20;;
11998;SDS011;40817;51.520;9.954;2023-02-17T14:21:34;3.25;;;1.60;;
11998;SDS011;40817;51.520;9.954;2023-02-17T14:24:04;2.20;;;1.35;;
11998;SDS011;40817;51.520;9.954;2023-02-17T14:26:34;2.38;;;1.38;;
11998;SDS011;40817;51.520;9.954;2023-02-17T14:29:08;4.32;;;1.48;;
11998;SDS011;40817;51.520;9.954;2023-02-17T14:31:38;1.77;;;1.20;;
11998;SDS011;40817;51.520;9.954;2023-02-17T14:34:12;4.25;;;1.50;;
11998;SDS011;40817;51.520;9.954;2023-02-17T14:36:54;2.67;;;1.45;;
11998;SDS011;40817;51.520;9.954;2023-02-17T14:39:33;2.97;;;1.77;;
11998;SDS011;40817;51.520;9.954;2023-02-17T14:42:01;9.48;;;2.03;;
11998;SDS011;40817;51.520;9.954;2023-02-17T14:44:29;2.20;;;1.50;;
11998;SDS011;40817;51.520;9.954;2023-02-17T14:46:57;3.17;;;1.80;;
11998;SDS011;40817;51.520;9.954;2023-02-17T14:49:24;3.78;;;2.25;;
11998;SDS011;40817;51.520;9.954;2023-02-17T14:51:54;4.18;;;2.22;;
11998;SDS011;40817;51.520;9.954;2023-02-17T14:54:22;3.63;;;2.40;;
11998;SDS011;40817;51.520;9.954;2023-02-17T14:56:52;6.60;;;2.60;;
11998;SDS011;40817;51.520;9.954;2023-02-17T14:59:30;4.20;;;2.35;;
11998;SDS011;40817;51.520;9.954;2023-02-17T15:01:57;4.40;;;2.70;;
11998;SDS011;40817;51.520;9.954;2023-02-17T15:04:25;5.13;;;2.65;;
11998;SDS011;40817;51.520;9.954;2023-02-17T15:06:54;4.07;;;2.72;;
11998;SDS011;40817;51.520;9.954;2023-02-17T15:09:25;5.90;;;3.33;;
11998;SDS011;40817;51.520;9.954;2023-02-17T15:11:56;5.85;;;2.42;;
11998;SDS011;40817;51.520;9.954;2023-02-17T15:14:24;4.55;;;2.85;;
11998;SDS011;40817;51.520;9.954;2023-02-17T15:16:51;5.03;;;2.85;;
11998;SDS011;40817;51.520;9.954;2023-02-17T15:19:19;5.28;;;2.90;;